createdAt,value
2019-02-26T00:00:37.116Z,88.67
2019-02-26T00:01:37.114Z,88.77
2019-02-26T00:02:37.127Z,88.56
2019-02-26T00:03:37.100Z,89.12
2019-02-26T00:04:37.102Z,89.23
2019-02-26T00:05:37.067Z,89.33
2019-02-26T00:06:37.056Z,89.39
2019-02-26T00:07:37.058Z,89.75
2019-02-26T00:08:37.036Z,89.75
2019-02-26T00:09:37.046Z,91.00
2019-02-26T00:10:38.959Z,90.41
2019-02-26T00:11:38.429Z,91.97
2019-02-26T00:12:36.995Z,91.87
2019-02-26T00:13:36.977Z,91.46
2019-02-26T00:14:37.004Z,91.97
2019-02-26T00:15:38.493Z,91.56
2019-02-26T00:16:39.673Z,91.87
2019-02-26T00:17:40.472Z,93.07
2019-02-26T00:18:36.932Z,92.66
2019-02-26T00:19:36.977Z,92.86
2019-02-26T00:20:39.090Z,92.76
2019-02-26T00:21:36.896Z,92.93
2019-02-26T00:22:38.861Z,92.20
2019-02-26T00:23:36.908Z,91.99
2019-02-26T00:24:37.679Z,91.78
2019-02-26T00:25:36.940Z,91.78
2019-02-26T00:26:38.479Z,91.78
2019-02-26T00:27:36.830Z,91.33
2019-02-26T00:28:39.082Z,91.33
2019-02-26T00:29:36.841Z,91.02
2019-02-26T00:30:37.910Z,90.91
2019-02-26T00:31:36.799Z,90.91
2019-02-26T00:32:38.287Z,91.22
2019-02-26T00:33:36.772Z,90.70
2019-02-26T00:34:38.592Z,90.29
2019-02-26T00:35:36.744Z,90.60
2019-02-26T00:36:38.179Z,90.77
2019-02-26T00:37:36.739Z,90.14
2019-02-26T00:38:37.750Z,89.83
2019-02-26T00:39:36.736Z,89.94
2019-02-26T00:40:38.773Z,89.73
2019-02-26T00:41:36.693Z,90.19
2019-02-26T00:42:36.706Z,90.14
2019-02-26T00:43:37.033Z,90.14
2019-02-26T00:44:37.346Z,90.35
2019-02-26T00:45:38.998Z,90.56
2019-02-26T00:46:39.030Z,90.56
2019-02-26T00:47:38.695Z,90.29
2019-02-26T00:48:38.879Z,90.35
2019-02-26T00:49:36.708Z,90.50
2019-02-26T00:50:37.396Z,90.35
2019-02-26T00:51:36.588Z,90.35
2019-02-26T00:52:37.555Z,90.70
2019-02-26T00:53:36.565Z,90.50
2019-02-26T00:54:36.684Z,90.60
2019-02-26T00:55:39.170Z,90.39
2019-02-26T00:56:38.557Z,90.70
2019-02-26T00:57:38.450Z,91.64
2019-02-26T00:58:38.949Z,91.43
2019-02-26T00:59:38.426Z,91.43
2019-02-26T01:00:36.516Z,91.64
2019-02-26T01:01:36.487Z,90.70
2019-02-26T01:02:36.469Z,90.81
2019-02-26T01:03:36.457Z,90.39
2019-02-26T01:04:36.453Z,90.39
2019-02-26T01:05:38.627Z,90.56
2019-02-26T01:06:36.423Z,90.25
2019-02-26T01:07:36.431Z,90.39
2019-02-26T01:08:37.944Z,90.56
2019-02-26T01:09:36.396Z,90.35
2019-02-26T01:10:38.777Z,90.56
2019-02-26T01:11:36.410Z,90.50
2019-02-26T01:12:37.558Z,90.60
2019-02-26T01:13:36.345Z,90.39
2019-02-26T01:14:36.357Z,90.50
2019-02-26T01:15:36.358Z,90.60
2019-02-26T01:16:37.059Z,90.70
2019-02-26T01:17:38.357Z,90.81
2019-02-26T01:18:36.332Z,90.60
2019-02-26T01:19:38.136Z,90.91
2019-02-26T01:20:36.314Z,89.77
2019-02-26T01:21:37.912Z,90.81
2019-02-26T01:22:37.764Z,90.50
2019-02-26T01:23:36.246Z,90.60
2019-02-26T01:24:36.251Z,90.39
2019-02-26T01:25:38.200Z,89.77
2019-02-26T01:26:36.227Z,90.50
2019-02-26T01:27:36.207Z,90.39
2019-02-26T01:28:36.197Z,90.39
2019-02-26T01:29:36.191Z,90.70
2019-02-26T01:30:36.335Z,90.50
2019-02-26T01:31:36.192Z,90.50
2019-02-26T01:32:36.155Z,90.70
2019-02-26T01:33:36.153Z,90.44
2019-02-26T01:34:37.798Z,91.16
2019-02-26T01:35:37.726Z,91.16
2019-02-26T01:36:36.106Z,91.27
2019-02-26T01:37:36.626Z,91.27
2019-02-26T01:38:39.515Z,91.53
2019-02-26T01:39:38.426Z,91.27
2019-02-26T01:40:39.402Z,90.85
2019-02-26T01:41:37.062Z,90.85
2019-02-26T01:42:36.048Z,90.85
2019-02-26T01:43:36.032Z,91.58
2019-02-26T01:44:38.068Z,90.85
2019-02-26T01:45:36.044Z,90.85
2019-02-26T01:46:36.681Z,91.37
2019-02-26T01:47:36.000Z,91.27
2019-02-26T01:48:36.651Z,91.47
2019-02-26T01:49:35.972Z,91.16
2019-02-26T01:50:37.856Z,90.95
2019-02-26T01:51:35.951Z,90.50
2019-02-26T01:52:35.942Z,90.70
2019-02-26T01:53:35.926Z,90.08
2019-02-26T01:54:37.341Z,90.29
2019-02-26T01:55:35.930Z,90.50
2019-02-26T01:56:36.490Z,90.33
2019-02-26T01:57:35.900Z,90.50
2019-02-26T01:58:35.887Z,89.98
2019-02-26T01:59:35.871Z,90.50
2019-02-26T02:00:35.881Z,90.81
2019-02-26T02:01:35.855Z,90.70
2019-02-26T02:02:35.836Z,90.81
2019-02-26T02:03:35.829Z,90.81
2019-02-26T02:04:37.089Z,90.39
2019-02-26T02:05:35.846Z,90.70
2019-02-26T02:06:36.919Z,90.70
2019-02-26T02:07:35.804Z,90.50
2019-02-26T02:08:39.315Z,90.12
2019-02-26T02:09:36.769Z,90.44
2019-02-26T02:10:35.831Z,90.75
2019-02-26T02:11:36.226Z,91.58
2019-02-26T02:12:37.387Z,91.68
2019-02-26T02:13:38.078Z,91.78
2019-02-26T02:14:35.720Z,92.14
2019-02-26T02:15:37.772Z,92.51
2019-02-26T02:16:35.704Z,92.10
2019-02-26T02:17:37.676Z,92.41
2019-02-26T02:18:35.679Z,92.10
2019-02-26T02:19:35.660Z,92.10
2019-02-26T02:20:35.719Z,91.68
2019-02-26T02:21:35.762Z,91.58
2019-02-26T02:22:37.593Z,91.47
2019-02-26T02:23:35.623Z,91.78
2019-02-26T02:24:39.000Z,91.72
2019-02-26T02:25:38.005Z,92.41
2019-02-26T02:26:35.609Z,92.45
2019-02-26T02:27:35.577Z,92.10
2019-02-26T02:28:35.725Z,92.61
2019-02-26T02:29:35.551Z,92.30
2019-02-26T02:30:38.877Z,91.68
2019-02-26T02:31:37.731Z,91.78
2019-02-26T02:32:35.528Z,91.58
2019-02-26T02:33:37.480Z,91.64
2019-02-26T02:34:36.581Z,91.64
2019-02-26T02:35:35.533Z,91.74
2019-02-26T02:36:35.494Z,91.58
2019-02-26T02:37:35.467Z,91.06
2019-02-26T02:38:37.150Z,91.16
2019-02-26T02:39:35.462Z,91.58
2019-02-26T02:40:38.018Z,91.53
2019-02-26T02:41:35.435Z,91.78
2019-02-26T02:42:37.517Z,91.02
2019-02-26T02:43:35.404Z,91.58
2019-02-26T02:44:35.409Z,91.27
2019-02-26T02:45:35.427Z,91.47
2019-02-26T02:46:36.628Z,91.68
2019-02-26T02:47:36.969Z,91.68
2019-02-26T02:48:35.362Z,91.47
2019-02-26T02:49:38.910Z,91.78
2019-02-26T02:50:35.390Z,91.68
2019-02-26T02:51:37.175Z,91.31
2019-02-26T02:52:37.889Z,91.68
2019-02-26T02:53:35.351Z,91.83
2019-02-26T02:54:35.283Z,91.27
2019-02-26T02:55:35.286Z,91.93
2019-02-26T02:56:36.959Z,91.93
2019-02-26T02:57:35.278Z,91.89
2019-02-26T02:58:35.248Z,92.03
2019-02-26T02:59:37.382Z,91.89
2019-02-26T03:00:35.222Z,92.24
2019-02-26T03:01:35.239Z,92.03
2019-02-26T03:02:40.504Z,92.30
2019-02-26T03:03:36.195Z,92.35
2019-02-26T03:04:35.216Z,91.89
2019-02-26T03:05:40.002Z,91.89
2019-02-26T03:06:38.691Z,91.78
2019-02-26T03:07:35.161Z,91.58
2019-02-26T03:08:35.185Z,92.14
2019-02-26T03:09:37.888Z,92.14
2019-02-26T03:10:37.248Z,91.93
2019-02-26T03:11:38.648Z,91.89
2019-02-26T03:12:36.109Z,91.83
2019-02-26T03:13:35.117Z,91.93
2019-02-26T03:14:36.450Z,91.68
2019-02-26T03:15:35.879Z,91.99
2019-02-26T03:16:35.076Z,92.61
2019-02-26T03:17:35.088Z,92.14
2019-02-26T03:18:35.035Z,92.24
2019-02-26T03:19:35.577Z,91.99
2019-02-26T03:20:39.481Z,92.35
2019-02-26T03:21:36.027Z,92.03
2019-02-26T03:22:36.306Z,92.45
2019-02-26T03:23:37.999Z,92.35
2019-02-26T03:24:36.012Z,92.35
2019-02-26T03:25:35.011Z,92.41
2019-02-26T03:26:34.970Z,92.24
2019-02-26T03:27:36.775Z,92.24
2019-02-26T03:28:37.451Z,91.72
2019-02-26T03:29:34.932Z,91.83
2019-02-26T03:30:40.263Z,91.93
2019-02-26T03:31:40.986Z,92.55
2019-02-26T03:32:37.853Z,92.76
2019-02-26T03:33:35.907Z,92.66
2019-02-26T03:34:34.865Z,92.66
2019-02-26T03:35:34.858Z,93.18
2019-02-26T03:36:37.354Z,92.66
2019-02-26T03:37:36.563Z,92.66
2019-02-26T03:38:34.877Z,92.66
2019-02-26T03:39:34.813Z,92.55
2019-02-26T03:40:36.121Z,92.66
2019-02-26T03:41:34.796Z,92.35
2019-02-26T03:42:36.498Z,92.55
2019-02-26T03:43:37.092Z,92.66
2019-02-26T03:44:34.761Z,92.66
2019-02-26T03:45:34.764Z,93.18
2019-02-26T03:46:34.742Z,93.18
2019-02-26T03:47:34.735Z,93.49
2019-02-26T03:48:34.808Z,93.43
2019-02-26T03:49:34.716Z,93.07
2019-02-26T03:50:34.694Z,93.07
2019-02-26T03:51:39.149Z,93.29
2019-02-26T03:52:35.672Z,93.01
2019-02-26T03:53:36.348Z,92.86
2019-02-26T03:54:37.220Z,92.35
2019-02-26T03:55:36.229Z,93.18
2019-02-26T03:56:34.639Z,93.29
2019-02-26T03:57:34.646Z,92.45
2019-02-26T03:58:34.641Z,92.35
2019-02-26T03:59:34.637Z,92.35
2019-02-26T04:00:35.587Z,92.20
2019-02-26T04:01:34.597Z,92.24
2019-02-26T04:02:36.771Z,92.24
2019-02-26T04:03:36.712Z,92.24
2019-02-26T04:04:34.609Z,92.45
2019-02-26T04:05:34.536Z,92.24
2019-02-26T04:06:36.600Z,92.66
2019-02-26T04:07:36.087Z,92.35
2019-02-26T04:08:34.560Z,92.24
2019-02-26T04:09:39.122Z,93.29
2019-02-26T04:10:35.496Z,93.12
2019-02-26T04:11:34.506Z,92.91
2019-02-26T04:12:39.274Z,92.66
2019-02-26T04:13:35.480Z,93.23
2019-02-26T04:14:34.447Z,93.23
2019-02-26T04:15:36.370Z,93.12
2019-02-26T04:16:35.270Z,93.64
2019-02-26T04:17:36.994Z,93.05
2019-02-26T04:18:34.940Z,93.58
2019-02-26T04:19:34.488Z,93.37
2019-02-26T04:20:34.397Z,93.27
2019-02-26T04:21:34.386Z,93.58
2019-02-26T04:22:34.361Z,93.89
2019-02-26T04:23:36.153Z,93.79
2019-02-26T04:24:36.044Z,94.45
2019-02-26T04:25:36.452Z,94.10
2019-02-26T04:26:35.080Z,94.66
2019-02-26T04:27:36.315Z,94.66
2019-02-26T04:28:37.136Z,95.08
2019-02-26T04:29:36.082Z,95.03
2019-02-26T04:30:39.027Z,95.25
2019-02-26T04:31:35.269Z,95.66
2019-02-26T04:32:36.472Z,95.66
2019-02-26T04:33:36.016Z,94.82
2019-02-26T04:34:34.291Z,95.25
2019-02-26T04:35:34.264Z,94.82
2019-02-26T04:36:34.797Z,95.03
2019-02-26T04:37:35.214Z,95.03
2019-02-26T04:38:34.207Z,95.35
2019-02-26T04:39:34.846Z,95.35
2019-02-26T04:40:36.332Z,95.14
2019-02-26T04:41:34.181Z,95.25
2019-02-26T04:42:35.219Z,95.03
2019-02-26T04:43:36.127Z,95.14
2019-02-26T04:44:34.369Z,94.62
2019-02-26T04:45:34.134Z,94.93
2019-02-26T04:46:36.682Z,94.51
2019-02-26T04:47:34.215Z,95.03
2019-02-26T04:48:34.335Z,94.82
2019-02-26T04:49:36.290Z,94.10
2019-02-26T04:50:35.766Z,94.31
2019-02-26T04:51:36.431Z,94.20
2019-02-26T04:52:35.785Z,94.20
2019-02-26T04:53:36.383Z,94.41
2019-02-26T04:54:36.927Z,93.79
2019-02-26T04:55:36.056Z,94.76
2019-02-26T04:56:37.071Z,93.93
2019-02-26T04:57:35.030Z,94.04
2019-02-26T04:58:36.652Z,94.56
2019-02-26T04:59:34.916Z,95.08
2019-02-26T05:00:37.959Z,95.23
2019-02-26T05:01:34.721Z,95.23
2019-02-26T05:02:33.987Z,95.85
2019-02-26T05:03:33.953Z,95.95
2019-02-26T05:04:36.853Z,95.85
2019-02-26T05:05:37.118Z,95.85
2019-02-26T05:06:33.897Z,95.33
2019-02-26T05:07:35.577Z,95.85
2019-02-26T05:08:35.653Z,95.85
2019-02-26T05:09:35.378Z,94.81
2019-02-26T05:10:34.388Z,95.37
2019-02-26T05:11:37.141Z,95.12
2019-02-26T05:12:37.118Z,94.64
2019-02-26T05:13:34.634Z,94.64
2019-02-26T05:14:33.830Z,94.79
2019-02-26T05:15:33.799Z,94.90
2019-02-26T05:16:35.207Z,95.00
2019-02-26T05:17:33.809Z,95.94
2019-02-26T05:18:34.554Z,95.31
2019-02-26T05:19:33.778Z,96.36
2019-02-26T05:20:36.285Z,96.36
2019-02-26T05:21:35.423Z,96.36
2019-02-26T05:22:33.798Z,96.67
2019-02-26T05:23:33.746Z,97.13
2019-02-26T05:24:33.713Z,96.92
2019-02-26T05:25:35.065Z,97.55
2019-02-26T05:26:33.766Z,97.13
2019-02-26T05:27:33.688Z,97.03
2019-02-26T05:28:37.630Z,96.92
2019-02-26T05:29:34.660Z,97.65
2019-02-26T05:30:33.654Z,97.44
2019-02-26T05:31:35.834Z,97.75
2019-02-26T05:32:35.580Z,98.28
2019-02-26T05:33:33.635Z,98.59
2019-02-26T05:34:33.631Z,98.49
2019-02-26T05:35:33.605Z,98.65
2019-02-26T05:36:34.489Z,98.55
2019-02-26T05:37:37.031Z,98.55
2019-02-26T05:38:35.013Z,98.34
2019-02-26T05:39:33.586Z,98.34
2019-02-26T05:40:37.430Z,98.44
2019-02-26T05:41:33.552Z,98.29
2019-02-26T05:42:33.513Z,98.71
2019-02-26T05:43:33.993Z,98.71
2019-02-26T05:44:33.525Z,98.23
2019-02-26T05:45:35.613Z,97.77
2019-02-26T05:46:33.483Z,97.67
2019-02-26T05:47:33.471Z,98.08
2019-02-26T05:48:33.497Z,97.35
2019-02-26T05:49:37.096Z,97.77
2019-02-26T05:50:35.422Z,97.56
2019-02-26T05:51:35.467Z,97.77
2019-02-26T05:52:35.643Z,97.67
2019-02-26T05:53:33.471Z,98.13
2019-02-26T05:54:33.453Z,97.92
2019-02-26T05:55:33.378Z,98.02
2019-02-26T05:56:34.048Z,97.98
2019-02-26T05:57:33.363Z,97.81
2019-02-26T05:58:34.095Z,97.98
2019-02-26T05:59:33.353Z,97.77
2019-02-26T06:00:33.491Z,98.02
2019-02-26T06:01:33.311Z,97.88
2019-02-26T06:02:33.326Z,97.98
2019-02-26T06:03:33.332Z,97.77
2019-02-26T06:04:35.095Z,97.77
2019-02-26T06:05:33.282Z,97.88
2019-02-26T06:06:33.378Z,97.77
2019-02-26T06:07:35.949Z,97.31
2019-02-26T06:08:35.817Z,97.31
2019-02-26T06:09:33.920Z,97.46
2019-02-26T06:10:33.210Z,97.56
2019-02-26T06:11:35.770Z,97.56
2019-02-26T06:12:35.325Z,96.52
2019-02-26T06:13:35.530Z,97.04
2019-02-26T06:14:35.940Z,96.69
2019-02-26T06:15:34.145Z,97.10
2019-02-26T06:16:33.155Z,96.94
2019-02-26T06:17:35.206Z,96.94
2019-02-26T06:18:34.186Z,97.46
2019-02-26T06:19:37.109Z,97.00
2019-02-26T06:20:36.102Z,97.35
2019-02-26T06:21:33.099Z,97.56
2019-02-26T06:22:34.629Z,97.46
2019-02-26T06:23:34.448Z,97.56
2019-02-26T06:24:33.783Z,97.52
2019-02-26T06:25:33.079Z,97.31
2019-02-26T06:26:35.640Z,97.20
2019-02-26T06:27:33.027Z,97.52
2019-02-26T06:28:38.075Z,96.79
2019-02-26T06:29:35.083Z,96.79
2019-02-26T06:30:33.001Z,96.48
2019-02-26T06:31:33.019Z,96.48
2019-02-26T06:32:35.218Z,96.37
2019-02-26T06:33:35.976Z,96.26
2019-02-26T06:34:33.201Z,95.75
2019-02-26T06:35:33.761Z,96.16
2019-02-26T06:36:32.950Z,95.75
2019-02-26T06:37:33.719Z,96.16
2019-02-26T06:38:34.970Z,96.37
2019-02-26T06:39:33.960Z,96.37
2019-02-26T06:40:36.689Z,96.16
2019-02-26T06:41:32.909Z,96.26
2019-02-26T06:42:33.715Z,96.48
2019-02-26T06:43:35.493Z,96.06
2019-02-26T06:44:32.892Z,96.16
2019-02-26T06:45:32.901Z,95.85
2019-02-26T06:46:33.712Z,96.26
2019-02-26T06:47:33.298Z,96.16
2019-02-26T06:48:32.886Z,95.75
2019-02-26T06:49:32.816Z,96.06
2019-02-26T06:50:34.005Z,95.85
2019-02-26T06:51:32.795Z,95.50
2019-02-26T06:52:35.104Z,96.01
2019-02-26T06:53:32.760Z,95.39
2019-02-26T06:54:32.825Z,96.01
2019-02-26T06:55:32.754Z,95.81
2019-02-26T06:56:36.854Z,96.12
2019-02-26T06:57:33.708Z,95.70
2019-02-26T06:58:32.780Z,95.45
2019-02-26T06:59:34.919Z,95.76
2019-02-26T07:00:32.717Z,95.14
2019-02-26T07:01:33.353Z,94.72
2019-02-26T07:02:32.689Z,95.25
2019-02-26T07:03:32.650Z,95.25
2019-02-26T07:04:32.636Z,94.82
2019-02-26T07:05:32.637Z,95.14
2019-02-26T07:06:34.829Z,94.82
2019-02-26T07:07:32.623Z,94.93
2019-02-26T07:08:32.594Z,95.20
2019-02-26T07:09:34.501Z,95.76
2019-02-26T07:10:33.656Z,95.62
2019-02-26T07:11:33.647Z,95.30
2019-02-26T07:12:32.556Z,95.09
2019-02-26T07:13:33.861Z,94.78
2019-02-26T07:14:34.456Z,94.78
2019-02-26T07:15:32.520Z,94.32
2019-02-26T07:16:32.517Z,94.22
2019-02-26T07:17:34.329Z,93.80
2019-02-26T07:18:32.510Z,93.76
2019-02-26T07:19:33.212Z,93.97
2019-02-26T07:20:34.325Z,93.55
2019-02-26T07:21:32.466Z,93.70
2019-02-26T07:22:32.488Z,93.66
2019-02-26T07:23:33.126Z,93.35
2019-02-26T07:24:32.430Z,92.93
2019-02-26T07:25:34.386Z,93.24
2019-02-26T07:26:32.410Z,92.78
2019-02-26T07:27:34.178Z,92.72
2019-02-26T07:28:32.430Z,92.16
2019-02-26T07:29:35.173Z,91.74
2019-02-26T07:30:32.625Z,92.05
2019-02-26T07:31:35.094Z,91.64
2019-02-26T07:32:32.343Z,91.85
2019-02-26T07:33:34.591Z,91.85
2019-02-26T07:34:32.486Z,91.53
2019-02-26T07:35:32.801Z,91.28
2019-02-26T07:36:32.315Z,91.80
2019-02-26T07:37:34.041Z,91.60
2019-02-26T07:38:41.016Z,91.70
2019-02-26T07:39:33.347Z,91.70
2019-02-26T07:40:33.017Z,91.60
2019-02-26T07:41:32.255Z,91.35
2019-02-26T07:42:34.710Z,91.14
2019-02-26T07:43:32.263Z,91.24
2019-02-26T07:44:32.250Z,90.62
2019-02-26T07:45:32.358Z,90.62
2019-02-26T07:46:33.698Z,90.20
2019-02-26T07:47:33.914Z,90.20
2019-02-26T07:48:33.671Z,90.41
2019-02-26T07:49:32.238Z,89.89
2019-02-26T07:50:37.437Z,90.06
2019-02-26T07:51:35.227Z,90.17
2019-02-26T07:52:33.095Z,89.13
2019-02-26T07:53:32.132Z,89.09
2019-02-26T07:54:32.200Z,89.40
2019-02-26T07:55:32.865Z,89.29
2019-02-26T07:56:32.738Z,88.67
2019-02-26T07:57:32.198Z,88.88
2019-02-26T07:58:33.369Z,88.78
2019-02-26T07:59:34.425Z,88.67
2019-02-26T08:00:32.868Z,88.46
2019-02-26T08:01:32.088Z,87.70
2019-02-26T08:02:32.525Z,87.59
2019-02-26T08:03:32.011Z,87.28
2019-02-26T08:04:34.004Z,87.59
2019-02-26T08:05:32.003Z,87.49
2019-02-26T08:06:33.827Z,88.01
2019-02-26T08:07:31.998Z,87.28
2019-02-26T08:08:31.983Z,87.07
2019-02-26T08:09:31.981Z,86.62
2019-02-26T08:10:35.178Z,87.14
2019-02-26T08:11:36.209Z,86.21
2019-02-26T08:12:35.047Z,85.58
2019-02-26T08:13:34.009Z,85.24
2019-02-26T08:14:31.933Z,85.44
2019-02-26T08:15:32.848Z,85.24
2019-02-26T08:16:31.881Z,85.09
2019-02-26T08:17:31.918Z,84.30
2019-02-26T08:18:31.858Z,84.47
2019-02-26T08:19:31.873Z,84.68
2019-02-26T08:20:33.508Z,84.58
2019-02-26T08:21:31.924Z,84.33
2019-02-26T08:22:33.997Z,83.61
2019-02-26T08:23:31.808Z,83.61
2019-02-26T08:24:31.833Z,83.71
2019-02-26T08:25:31.866Z,83.50
2019-02-26T08:26:31.786Z,83.81
2019-02-26T08:27:33.881Z,83.91
2019-02-26T08:28:31.746Z,82.74
2019-02-26T08:29:33.654Z,82.32
2019-02-26T08:30:31.742Z,81.81
2019-02-26T08:31:31.726Z,81.81
2019-02-26T08:32:31.709Z,81.60
2019-02-26T08:33:31.713Z,81.60
2019-02-26T08:34:31.904Z,81.25
2019-02-26T08:35:31.728Z,81.15
2019-02-26T08:36:31.665Z,80.94
2019-02-26T08:37:31.659Z,81.63
2019-02-26T08:38:31.705Z,80.08
2019-02-26T08:39:31.665Z,79.56
2019-02-26T08:40:31.736Z,79.97
2019-02-26T08:41:31.615Z,80.29
2019-02-26T08:42:31.609Z,80.49
2019-02-26T08:43:31.625Z,79.73
2019-02-26T08:44:31.623Z,79.83
2019-02-26T08:45:31.571Z,80.04
2019-02-26T08:46:31.631Z,79.94
2019-02-26T08:47:31.553Z,79.83
2019-02-26T08:48:31.538Z,79.94
2019-02-26T08:49:31.554Z,78.80
2019-02-26T08:50:33.287Z,79.73
2019-02-26T08:51:31.513Z,78.97
2019-02-26T08:52:31.602Z,78.97
2019-02-26T08:53:31.698Z,78.35
2019-02-26T08:54:33.336Z,78.25
2019-02-26T08:55:31.465Z,78.11
2019-02-26T08:56:33.767Z,78.45
2019-02-26T08:57:31.454Z,78.21
2019-02-26T08:58:31.452Z,78.31
2019-02-26T08:59:31.529Z,78.11
2019-02-26T09:00:31.420Z,77.59
2019-02-26T09:01:31.409Z,78.01
2019-02-26T09:02:31.404Z,77.80
2019-02-26T09:03:40.139Z,77.28
2019-02-26T09:04:32.423Z,77.35
2019-02-26T09:05:34.259Z,76.42
2019-02-26T09:06:31.376Z,77.01
2019-02-26T09:07:31.366Z,75.98
2019-02-26T09:08:32.994Z,76.18
2019-02-26T09:09:32.807Z,76.08
2019-02-26T09:10:31.306Z,75.73
2019-02-26T09:11:33.759Z,75.77
2019-02-26T09:12:31.311Z,75.94
2019-02-26T09:13:33.574Z,75.84
2019-02-26T09:14:34.495Z,75.43
2019-02-26T09:15:33.646Z,75.22
2019-02-26T09:16:32.792Z,75.39
2019-02-26T09:17:32.512Z,73.85
2019-02-26T09:18:35.516Z,74.46
2019-02-26T09:19:33.096Z,74.88
2019-02-26T09:20:31.206Z,75.46
2019-02-26T09:21:31.195Z,72.88
2019-02-26T09:22:31.183Z,73.61
2019-02-26T09:23:32.868Z,73.98
2019-02-26T09:24:31.156Z,73.78
2019-02-26T09:25:31.992Z,71.82
2019-02-26T09:26:31.236Z,72.96
2019-02-26T09:27:32.098Z,71.51
2019-02-26T09:28:32.111Z,71.07
2019-02-26T09:29:31.427Z,71.37
2019-02-26T09:30:33.426Z,71.24
2019-02-26T09:31:31.085Z,71.86
2019-02-26T09:32:32.646Z,71.14
2019-02-26T09:33:32.999Z,71.04
2019-02-26T09:34:31.766Z,70.32
2019-02-26T09:35:32.995Z,70.83
2019-02-26T09:36:31.074Z,70.32
2019-02-26T09:37:31.019Z,71.66
2019-02-26T09:38:31.023Z,71.72
2019-02-26T09:39:32.461Z,71.75
2019-02-26T09:40:34.279Z,69.77
2019-02-26T09:41:33.229Z,71.11
2019-02-26T09:42:32.447Z,70.39
2019-02-26T09:43:30.956Z,69.94
2019-02-26T09:44:32.860Z,70.36
2019-02-26T09:45:30.945Z,71.11
2019-02-26T09:46:31.744Z,70.25
2019-02-26T09:47:33.327Z,70.46
2019-02-26T09:48:30.901Z,69.94
2019-02-26T09:49:33.189Z,69.74
2019-02-26T09:50:30.900Z,69.60
2019-02-26T09:51:32.885Z,69.19
2019-02-26T09:52:32.685Z,69.70
2019-02-26T09:53:30.884Z,69.40
2019-02-26T09:54:30.896Z,70.22
2019-02-26T09:55:30.822Z,69.09
2019-02-26T09:56:30.811Z,69.26
2019-02-26T09:57:30.886Z,68.75
2019-02-26T09:58:30.826Z,68.03
2019-02-26T09:59:31.445Z,67.72
2019-02-26T10:00:30.778Z,69.06
2019-02-26T10:01:33.136Z,67.38
2019-02-26T10:02:30.787Z,67.18
2019-02-26T10:03:35.653Z,66.05
2019-02-26T10:04:31.928Z,67.79
2019-02-26T10:05:30.717Z,68.21
2019-02-26T10:06:31.026Z,68.38
2019-02-26T10:07:33.109Z,67.86
2019-02-26T10:08:30.925Z,66.63
2019-02-26T10:09:32.862Z,67.05
2019-02-26T10:10:33.507Z,66.63
2019-02-26T10:11:30.744Z,66.63
2019-02-26T10:12:32.257Z,66.94
2019-02-26T10:13:30.636Z,67.02
2019-02-26T10:14:31.104Z,67.52
2019-02-26T10:15:32.391Z,66.60
2019-02-26T10:16:32.956Z,65.65
2019-02-26T10:17:32.637Z,65.24
2019-02-26T10:18:32.794Z,66.37
2019-02-26T10:19:32.873Z,65.24
2019-02-26T10:20:31.764Z,65.75
2019-02-26T10:21:33.091Z,65.34
2019-02-26T10:22:33.199Z,65.65
2019-02-26T10:23:33.087Z,65.55
2019-02-26T10:24:32.876Z,64.80
2019-02-26T10:25:31.897Z,65.31
2019-02-26T10:26:31.319Z,64.80
2019-02-26T10:27:33.598Z,64.67
2019-02-26T10:28:35.177Z,63.13
2019-02-26T10:29:32.389Z,64.09
2019-02-26T10:30:33.272Z,64.16
2019-02-26T10:31:30.443Z,61.80
2019-02-26T10:32:32.727Z,62.93
2019-02-26T10:33:31.577Z,61.80
2019-02-26T10:34:30.492Z,63.31
2019-02-26T10:35:33.263Z,63.10
2019-02-26T10:36:32.809Z,63.41
2019-02-26T10:37:31.888Z,62.90
2019-02-26T10:38:31.818Z,61.54
2019-02-26T10:39:32.041Z,61.54
2019-02-26T10:40:35.390Z,60.93
2019-02-26T10:41:31.355Z,61.34
2019-02-26T10:42:39.433Z,61.21
2019-02-26T10:43:31.445Z,61.41
2019-02-26T10:44:30.340Z,60.80
2019-02-26T10:45:30.308Z,61.00
2019-02-26T10:46:32.146Z,59.78
2019-02-26T10:47:32.236Z,60.05
2019-02-26T10:48:30.279Z,59.41
2019-02-26T10:49:30.246Z,59.21
2019-02-26T10:50:31.969Z,57.98
2019-02-26T10:51:30.223Z,58.78
2019-02-26T10:52:30.223Z,58.16
2019-02-26T10:53:30.482Z,58.06
2019-02-26T10:54:34.651Z,58.06
2019-02-26T10:55:38.166Z,58.98
2019-02-26T10:56:36.278Z,59.89
2019-02-26T10:57:33.451Z,59.59
2019-02-26T10:58:30.381Z,58.26
2019-02-26T10:59:30.171Z,58.78
2019-02-26T11:00:33.758Z,59.59
2019-02-26T11:01:31.015Z,58.37
2019-02-26T11:02:30.165Z,58.67
2019-02-26T11:03:30.144Z,58.78
2019-02-26T11:04:34.643Z,58.47
2019-02-26T11:05:31.096Z,59.39
2019-02-26T11:06:31.157Z,58.95
2019-02-26T11:07:31.901Z,57.83
2019-02-26T11:08:32.278Z,58.03
2019-02-26T11:09:31.921Z,58.44
2019-02-26T11:10:30.021Z,59.66
2019-02-26T11:11:30.971Z,58.23
2019-02-26T11:12:33.406Z,59.64
2019-02-26T11:13:30.038Z,58.21
2019-02-26T11:14:31.225Z,57.70
2019-02-26T11:15:33.311Z,58.21
2019-02-26T11:16:32.936Z,57.70
2019-02-26T11:17:31.625Z,57.90
2019-02-26T11:18:29.943Z,58.51
2019-02-26T11:19:33.787Z,59.30
2019-02-26T11:20:34.062Z,58.49
2019-02-26T11:21:29.932Z,56.85
2019-02-26T11:22:29.902Z,56.96
2019-02-26T11:23:31.253Z,56.96
2019-02-26T11:24:31.415Z,56.12
2019-02-26T11:25:29.897Z,57.04
2019-02-26T11:26:30.559Z,56.42
2019-02-26T11:27:29.892Z,56.32
2019-02-26T11:28:33.333Z,55.38
2019-02-26T11:29:33.024Z,55.18
2019-02-26T11:30:32.103Z,54.87
2019-02-26T11:31:29.831Z,53.72
2019-02-26T11:32:30.648Z,53.63
2019-02-26T11:33:30.579Z,53.83
2019-02-26T11:34:31.481Z,54.24
2019-02-26T11:35:29.914Z,54.24
2019-02-26T11:36:31.254Z,54.03
2019-02-26T11:37:31.984Z,53.83
2019-02-26T11:38:29.804Z,53.70
2019-02-26T11:39:29.793Z,53.90
2019-02-26T11:40:30.676Z,53.29
2019-02-26T11:41:31.196Z,53.29
2019-02-26T11:42:29.697Z,51.77
2019-02-26T11:43:29.744Z,53.37
2019-02-26T11:44:29.672Z,53.27
2019-02-26T11:45:29.770Z,54.77
2019-02-26T11:46:30.270Z,53.04
2019-02-26T11:47:29.642Z,53.63
2019-02-26T11:48:31.282Z,53.83
2019-02-26T11:49:31.113Z,53.72
2019-02-26T11:50:29.630Z,54.54
2019-02-26T11:51:36.862Z,54.82
2019-02-26T11:52:30.593Z,55.12
2019-02-26T11:53:30.284Z,53.70
2019-02-26T11:54:34.071Z,53.88
2019-02-26T11:55:32.003Z,54.49
2019-02-26T11:56:29.528Z,54.18
2019-02-26T11:57:32.575Z,54.08
2019-02-26T11:58:29.506Z,54.57
2019-02-26T11:59:31.614Z,53.22
2019-02-26T12:00:33.896Z,53.63
2019-02-26T12:01:32.219Z,53.22
2019-02-26T12:02:33.767Z,52.92
2019-02-26T12:03:32.755Z,53.22
2019-02-26T12:04:29.452Z,52.48
2019-02-26T12:05:33.098Z,51.67
2019-02-26T12:06:29.498Z,51.57
2019-02-26T12:07:29.865Z,51.57
2019-02-26T12:08:29.438Z,52.18
2019-02-26T12:09:32.366Z,51.17
2019-02-26T12:10:32.491Z,51.14
2019-02-26T12:11:29.365Z,50.13
2019-02-26T12:12:31.126Z,51.04
2019-02-26T12:13:29.348Z,50.63
2019-02-26T12:14:29.336Z,51.14
2019-02-26T12:15:30.248Z,50.71
2019-02-26T12:16:29.321Z,51.22
2019-02-26T12:17:29.326Z,49.80
2019-02-26T12:18:29.310Z,50.51
2019-02-26T12:19:31.118Z,49.17
2019-02-26T12:20:29.300Z,48.97
2019-02-26T12:21:29.959Z,48.97
2019-02-26T12:22:29.895Z,49.58
2019-02-26T12:23:29.299Z,49.45
2019-02-26T12:24:31.108Z,49.38
2019-02-26T12:25:30.079Z,49.15
2019-02-26T12:26:30.218Z,48.95
2019-02-26T12:27:29.445Z,48.34
2019-02-26T12:28:32.420Z,48.42
2019-02-26T12:29:30.179Z,48.54
2019-02-26T12:30:29.201Z,48.34
2019-02-26T12:31:31.794Z,47.81
2019-02-26T12:32:29.649Z,47.20
2019-02-26T12:33:32.312Z,47.28
2019-02-26T12:34:29.126Z,46.58
2019-02-26T12:35:29.671Z,46.88
2019-02-26T12:36:29.908Z,47.79
2019-02-26T12:37:29.224Z,45.16
2019-02-26T12:38:29.089Z,46.58
2019-02-26T12:39:31.396Z,45.65
2019-02-26T12:40:29.104Z,45.85
2019-02-26T12:41:29.059Z,46.05
2019-02-26T12:42:29.041Z,45.95
2019-02-26T12:43:30.189Z,45.45
2019-02-26T12:44:31.728Z,44.54
2019-02-26T12:45:31.047Z,44.94
2019-02-26T12:46:31.219Z,44.21
2019-02-26T12:47:28.980Z,43.51
2019-02-26T12:48:29.038Z,45.12
2019-02-26T12:49:29.401Z,44.11
2019-02-26T12:50:30.840Z,43.71
2019-02-26T12:51:31.767Z,45.02
2019-02-26T12:52:30.398Z,44.62